createdAt,value
2023-03-06T00:01:27.512Z,1009.12
2023-03-06T00:03:27.512Z,1009.12
2023-03-06T00:05:27.510Z,1009.09
2023-03-06T00:07:27.482Z,1009.09
2023-03-06T00:09:27.471Z,1009.05
2023-03-06T00:11:27.490Z,1009.06
2023-03-06T00:13:27.471Z,1009.06
2023-03-06T00:15:27.505Z,1008.99
2023-03-06T00:17:27.468Z,1008.92
2023-03-06T00:19:27.526Z,1008.92
2023-03-06T00:21:27.489Z,1008.92
2023-03-06T00:23:27.477Z,1008.92
2023-03-06T00:25:27.593Z,1008.82
2023-03-06T00:27:27.480Z,1008.72
2023-03-06T00:29:27.483Z,1008.72
2023-03-06T00:31:27.533Z,1008.72
2023-03-06T00:33:27.488Z,1008.63
2023-03-06T00:35:27.557Z,1008.63
2023-03-06T00:37:57.485Z,1008.61
2023-03-06T00:39:57.564Z,1008.59
2023-03-06T00:41:57.494Z,1008.59
2023-03-06T00:43:57.489Z,1008.58
2023-03-06T00:45:57.699Z,1008.56
2023-03-06T00:47:57.502Z,1008.53
2023-03-06T00:49:57.492Z,1008.53
2023-03-06T00:51:57.492Z,1008.53
2023-03-06T00:53:57.573Z,1008.53
2023-03-06T00:55:57.483Z,1008.44
2023-03-06T00:57:57.592Z,1008.43
2023-03-06T00:59:57.504Z,1008.43
2023-03-06T01:01:57.517Z,1008.43
2023-03-06T01:03:57.530Z,1008.33
2023-03-06T01:05:57.497Z,1008.26
2023-03-06T01:07:57.481Z,1008.23
2023-03-06T01:09:57.575Z,1008.23
2023-03-06T01:11:57.525Z,1008.18
2023-03-06T01:13:57.489Z,1008.18
2023-03-06T01:15:57.531Z,1008.10
2023-03-06T01:17:57.530Z,1008.10
2023-03-06T01:19:57.486Z,1008.03
2023-03-06T01:21:57.492Z,1008.02
2023-03-06T01:23:57.492Z,1007.98
2023-03-06T01:25:57.502Z,1008.02
2023-03-06T01:27:57.513Z,1008.02
2023-03-06T01:29:57.481Z,1007.99
2023-03-06T01:31:57.567Z,1007.97
2023-03-06T01:33:57.522Z,1007.92
2023-03-06T01:35:57.632Z,1007.92
2023-03-06T01:37:57.578Z,1007.92
2023-03-06T01:39:57.612Z,1007.79
2023-03-06T01:41:57.684Z,1007.79
2023-03-06T01:43:57.525Z,1007.83
2023-03-06T01:45:57.654Z,1007.86
2023-03-06T01:47:57.540Z,1007.86
2023-03-06T01:49:57.581Z,1007.79
2023-03-06T01:51:57.622Z,1007.69
2023-03-06T01:53:57.531Z,1007.66
2023-03-06T01:55:58.723Z,1007.66
2023-03-06T01:57:57.516Z,1007.61
2023-03-06T02:02:06.123Z,1007.56
2023-03-06T02:04:06.117Z,1007.56
2023-03-06T02:06:06.197Z,1007.56
2023-03-06T02:08:06.070Z,1007.49
2023-03-06T02:10:06.100Z,1007.48
2023-03-06T02:12:06.126Z,1007.46
2023-03-06T02:14:06.173Z,1007.45
2023-03-06T02:16:06.089Z,1007.45
2023-03-06T02:18:06.085Z,1007.45
2023-03-06T02:20:06.102Z,1007.45
2023-03-06T02:22:06.107Z,1007.45
2023-03-06T02:24:06.119Z,1007.45
2023-03-06T02:26:06.098Z,1007.33
2023-03-06T02:28:06.118Z,1007.31
2023-03-06T02:30:06.123Z,1007.31
2023-03-06T02:32:06.159Z,1007.28
2023-03-06T02:34:06.200Z,1007.28
2023-03-06T02:36:06.101Z,1007.23
2023-03-06T02:38:06.140Z,1007.23
2023-03-06T02:40:06.127Z,1007.16
2023-03-06T02:42:06.125Z,1007.16
2023-03-06T02:44:06.184Z,1007.16
2023-03-06T02:46:06.242Z,1006.99
2023-03-06T02:48:06.109Z,1006.99
2023-03-06T02:50:06.137Z,1006.99
2023-03-06T02:52:36.114Z,1006.91
2023-03-06T02:54:36.116Z,1006.91
2023-03-06T02:56:36.102Z,1006.91
2023-03-06T02:58:36.144Z,1006.85
2023-03-06T03:00:36.096Z,1006.87
2023-03-06T03:02:36.090Z,1006.87
2023-03-06T03:04:36.155Z,1006.77
2023-03-06T03:06:36.144Z,1006.77
2023-03-06T03:08:36.083Z,1006.77
2023-03-06T03:10:36.140Z,1006.76
2023-03-06T03:12:36.125Z,1006.80
2023-03-06T03:14:36.107Z,1006.73
2023-03-06T03:16:38.815Z,1006.73
2023-03-06T03:18:36.174Z,1006.72
2023-03-06T03:20:36.115Z,1006.72
2023-03-06T03:22:36.119Z,1006.72
2023-03-06T03:24:36.178Z,1006.72
2023-03-06T03:26:36.200Z,1006.68
2023-03-06T03:28:36.120Z,1006.68
2023-03-06T03:30:36.135Z,1006.68
2023-03-06T03:32:36.292Z,1006.66
2023-03-06T03:34:36.144Z,1006.66
2023-03-06T03:36:36.244Z,1006.66
2023-03-06T03:38:36.150Z,1006.61
2023-03-06T03:40:36.135Z,1006.56
2023-03-06T03:42:36.150Z,1006.56
2023-03-06T03:44:36.120Z,1006.56
2023-03-06T03:46:36.251Z,1006.55
2023-03-06T03:48:36.166Z,1006.58
2023-03-06T03:50:36.127Z,1006.58
2023-03-06T03:52:36.140Z,1006.58
2023-03-06T03:54:36.171Z,1006.58
2023-03-06T03:56:36.146Z,1006.59
2023-03-06T03:58:36.137Z,1006.59
2023-03-06T04:00:36.132Z,1006.49
2023-03-06T04:02:36.256Z,1006.49
2023-03-06T04:04:36.294Z,1006.44
2023-03-06T04:06:36.123Z,1006.41
2023-03-06T04:08:36.147Z,1006.35
2023-03-06T04:10:36.115Z,1006.36
2023-03-06T04:12:36.188Z,1006.36
2023-03-06T04:14:36.224Z,1006.36
2023-03-06T04:16:36.310Z,1006.32
2023-03-06T04:18:36.154Z,1006.34
2023-03-06T04:20:36.165Z,1006.34
2023-03-06T04:22:36.271Z,1006.26
2023-03-06T04:24:36.192Z,1006.26
2023-03-06T04:26:36.206Z,1006.26
2023-03-06T04:28:36.230Z,1006.28
2023-03-06T04:30:36.160Z,1006.28
2023-03-06T04:32:36.297Z,1006.25
2023-03-06T04:34:36.158Z,1006.19
2023-03-06T04:37:06.168Z,1006.25
2023-03-06T04:39:06.306Z,1006.27
2023-03-06T04:41:06.202Z,1006.27
2023-03-06T04:43:06.196Z,1006.16
2023-03-06T04:45:06.184Z,1006.13
2023-03-06T04:47:06.175Z,1006.14
2023-03-06T04:49:06.184Z,1006.14
2023-03-06T04:51:06.167Z,1006.12
2023-03-06T04:53:06.165Z,1006.12
2023-03-06T04:55:06.195Z,1006.08
2023-03-06T04:57:06.162Z,1006.08
2023-03-06T04:59:06.159Z,1006.08
2023-03-06T05:01:06.224Z,1006.14
2023-03-06T05:03:06.278Z,1006.02
2023-03-06T05:05:06.198Z,1006.02
2023-03-06T05:07:06.205Z,1006.08
2023-03-06T05:09:06.231Z,1006.08
2023-03-06T05:11:06.270Z,1006.07
2023-03-06T05:13:06.479Z,1006.07
2023-03-06T05:15:06.217Z,1006.09
2023-03-06T05:17:06.147Z,1006.09
2023-03-06T05:19:06.155Z,1006.09
2023-03-06T05:21:06.289Z,1006.14
2023-03-06T05:23:06.264Z,1006.11
2023-03-06T05:25:06.269Z,1006.11
2023-03-06T05:27:06.260Z,1006.11
2023-03-06T05:29:06.237Z,1006.13
2023-03-06T05:31:06.206Z,1006.13
2023-03-06T05:33:06.180Z,1006.05
2023-03-06T05:35:06.292Z,1006.08
2023-03-06T05:37:06.192Z,1006.08
2023-03-06T05:39:06.202Z,1006.08
2023-03-06T05:41:06.181Z,1006.02
2023-03-06T05:43:06.535Z,1006.07
2023-03-06T05:45:06.330Z,1006.07
2023-03-06T05:47:06.209Z,1006.07
2023-03-06T05:49:06.290Z,1006.03
2023-03-06T05:51:06.226Z,1005.96
2023-03-06T05:53:06.191Z,1005.96
2023-03-06T05:55:06.254Z,1005.96
2023-03-06T05:57:06.269Z,1005.97
2023-03-06T05:59:06.265Z,1006.00
2023-03-06T06:01:06.245Z,1006.02
2023-03-06T06:03:06.273Z,1006.00
2023-03-06T06:05:06.300Z,1006.00
2023-03-06T06:07:06.223Z,1005.99
2023-03-06T06:09:06.222Z,1006.03
2023-03-06T06:11:06.253Z,1006.04
2023-03-06T06:13:06.179Z,1006.01
2023-03-06T06:15:06.179Z,1006.01
2023-03-06T06:17:06.213Z,1005.93
2023-03-06T06:19:06.178Z,1005.94
2023-03-06T06:21:36.318Z,1005.93
2023-03-06T06:23:36.192Z,1005.97
2023-03-06T06:25:36.198Z,1005.97
2023-03-06T06:27:36.217Z,1005.97
2023-03-06T06:29:36.285Z,1006.01
2023-03-06T06:31:36.317Z,1006.00
2023-03-06T06:33:36.222Z,1005.99
2023-03-06T06:35:36.255Z,1006.01
2023-03-06T06:37:36.219Z,1006.01
2023-03-06T06:39:36.240Z,1005.99
2023-03-06T06:41:54.903Z,1005.97
2023-03-06T06:43:36.248Z,1006.00
2023-03-06T06:45:36.191Z,1006.01
2023-03-06T06:47:36.239Z,1006.01
2023-03-06T06:49:36.250Z,1006.03
2023-03-06T06:51:36.265Z,1006.03
2023-03-06T06:53:36.205Z,1006.06
2023-03-06T06:55:36.253Z,1006.06
2023-03-06T06:57:36.205Z,1006.06
2023-03-06T06:59:36.210Z,1006.07
2023-03-06T07:01:36.335Z,1006.08
2023-03-06T07:03:36.282Z,1006.08
2023-03-06T07:05:36.366Z,1006.08
2023-03-06T07:07:36.233Z,1006.08
2023-03-06T07:09:36.219Z,1006.13
2023-03-06T07:11:36.301Z,1006.15
2023-03-06T07:13:36.258Z,1006.17
2023-03-06T07:15:36.423Z,1006.17
2023-03-06T07:17:36.219Z,1006.16
2023-03-06T07:19:37.378Z,1006.15
2023-03-06T07:21:36.228Z,1006.21
2023-03-06T07:23:36.219Z,1006.21
2023-03-06T07:25:36.254Z,1006.21
2023-03-06T07:27:36.244Z,1006.23
2023-03-06T07:29:36.320Z,1006.20
2023-03-06T07:31:36.284Z,1006.17
2023-03-06T07:33:36.223Z,1006.17
2023-03-06T07:35:36.278Z,1006.22
2023-03-06T07:37:36.231Z,1006.27
2023-03-06T07:39:36.306Z,1006.26
2023-03-06T07:41:36.301Z,1006.27
2023-03-06T07:43:36.354Z,1006.27
2023-03-06T07:45:36.271Z,1006.24
2023-03-06T07:47:36.246Z,1006.24
2023-03-06T07:49:36.270Z,1006.27
2023-03-06T07:51:36.228Z,1006.27
2023-03-06T07:53:36.292Z,1006.39
2023-03-06T07:55:36.269Z,1006.34
2023-03-06T07:57:36.250Z,1006.34
2023-03-06T07:59:36.319Z,1006.33
2023-03-06T08:01:36.298Z,1006.33
2023-03-06T08:03:36.403Z,1006.36
2023-03-06T08:05:36.328Z,1006.36
2023-03-06T08:08:06.369Z,1006.36
2023-03-06T08:10:06.316Z,1006.38
2023-03-06T08:13:44.234Z,1006.39
2023-03-06T08:15:44.265Z,1006.44
2023-03-06T08:17:44.230Z,1006.40
2023-03-06T08:19:44.186Z,1006.46
2023-03-06T08:21:44.219Z,1006.46
2023-03-06T08:23:44.239Z,1006.44
2023-03-06T08:25:44.189Z,1006.45
2023-03-06T08:27:44.213Z,1006.45
2023-03-06T08:29:44.178Z,1006.45
2023-03-06T08:31:44.266Z,1006.49
2023-03-06T08:33:44.254Z,1006.46
2023-03-06T08:36:14.202Z,1006.47
2023-03-06T08:38:14.209Z,1006.43
2023-03-06T08:40:14.202Z,1006.43
2023-03-06T08:42:14.212Z,1006.52
2023-03-06T08:44:14.215Z,1006.52
2023-03-06T08:46:14.268Z,1006.48
2023-03-06T08:48:14.254Z,1006.49
2023-03-06T08:50:14.200Z,1006.49
2023-03-06T08:52:14.223Z,1006.46
2023-03-06T08:54:14.411Z,1006.46
2023-03-06T08:56:14.225Z,1006.46
2023-03-06T08:58:14.207Z,1006.46
2023-03-06T09:00:14.308Z,1006.46
2023-03-06T09:02:14.284Z,1006.46
2023-03-06T09:04:14.220Z,1006.47
2023-03-06T09:06:14.216Z,1006.47
2023-03-06T09:08:14.322Z,1006.47
2023-03-06T09:10:14.347Z,1006.47
2023-03-06T09:12:14.230Z,1006.47
2023-03-06T09:14:14.201Z,1006.56
2023-03-06T09:16:14.236Z,1006.63
2023-03-06T09:18:14.284Z,1006.63
2023-03-06T09:20:14.221Z,1006.55
2023-03-06T09:22:14.229Z,1006.60
2023-03-06T09:24:14.259Z,1006.64
2023-03-06T09:26:14.239Z,1006.64
2023-03-06T09:28:14.259Z,1006.67
2023-03-06T09:30:14.284Z,1006.68
2023-03-06T09:32:14.341Z,1006.68
2023-03-06T09:34:14.256Z,1006.74
2023-03-06T09:36:14.240Z,1006.74
2023-03-06T09:38:14.531Z,1006.74
2023-03-06T09:40:14.348Z,1006.73
2023-03-06T09:42:14.256Z,1006.73
2023-03-06T09:44:14.276Z,1006.72
2023-03-06T09:46:14.333Z,1006.72
2023-03-06T09:48:14.306Z,1006.71
2023-03-06T09:50:14.352Z,1006.71
2023-03-06T09:52:14.376Z,1006.63
2023-03-06T09:54:14.241Z,1006.63
2023-03-06T09:56:14.351Z,1006.63
2023-03-06T09:58:14.373Z,1006.60
2023-03-06T10:00:14.242Z,1006.59
2023-03-06T10:02:14.502Z,1006.59
2023-03-06T10:04:14.300Z,1006.59
2023-03-06T10:06:14.255Z,1006.59
2023-03-06T10:08:14.333Z,1006.55
2023-03-06T10:10:14.255Z,1006.48
2023-03-06T10:12:14.284Z,1006.49
2023-03-06T10:14:14.275Z,1006.49
2023-03-06T10:16:14.294Z,1006.49
2023-03-06T10:18:14.260Z,1006.47
2023-03-06T10:20:44.268Z,1006.45
2023-03-06T10:22:48.029Z,1006.45
2023-03-06T10:24:44.282Z,1006.45
2023-03-06T10:26:44.331Z,1006.45
2023-03-06T10:28:45.293Z,1006.43
2023-03-06T10:30:44.317Z,1006.43
2023-03-06T10:32:48.622Z,1006.39
2023-03-06T10:34:44.268Z,1006.42
2023-03-06T10:36:44.310Z,1006.42
2023-03-06T10:38:44.378Z,1006.37
2023-03-06T10:40:44.307Z,1006.43
2023-03-06T10:42:44.307Z,1006.44
2023-03-06T10:44:44.290Z,1006.46
2023-03-06T10:46:44.335Z,1006.46
2023-03-06T10:48:44.279Z,1006.50
2023-03-06T10:50:44.574Z,1006.50
2023-03-06T10:52:44.296Z,1006.48
2023-03-06T10:54:44.281Z,1006.48
2023-03-06T10:56:44.334Z,1006.55
2023-03-06T10:58:44.413Z,1006.56
2023-03-06T11:00:44.311Z,1006.58
2023-03-06T11:02:44.313Z,1006.56
2023-03-06T11:04:44.360Z,1006.56
2023-03-06T11:06:44.343Z,1006.52
2023-03-06T11:08:44.285Z,1006.52
2023-03-06T11:10:44.396Z,1006.52
2023-03-06T11:12:44.458Z,1006.43
2023-03-06T11:14:44.340Z,1006.43
2023-03-06T11:16:44.320Z,1006.52
2023-03-06T11:18:44.304Z,1006.48
2023-03-06T11:20:52.141Z,1006.49
2023-03-06T11:22:44.399Z,1006.47
2023-03-06T11:24:44.304Z,1006.47
2023-03-06T11:26:44.379Z,1006.54
2023-03-06T11:28:44.304Z,1006.56
2023-03-06T11:30:44.323Z,1006.59
2023-03-06T11:32:44.294Z,1006.59
2023-03-06T11:34:44.355Z,1006.56
2023-03-06T11:36:44.304Z,1006.54
2023-03-06T11:38:44.302Z,1006.48
2023-03-06T11:40:44.290Z,1006.50
2023-03-06T11:42:44.473Z,1006.50
2023-03-06T11:44:44.322Z,1006.45
2023-03-06T11:46:44.384Z,1006.40
2023-03-06T11:48:44.294Z,1006.40
2023-03-06T11:50:44.313Z,1006.40
2023-03-06T11:52:44.338Z,1006.40
2023-03-06T11:54:44.319Z,1006.33
2023-03-06T11:56:44.334Z,1006.26
2023-03-06T11:58:44.573Z,1006.28
2023-03-06T12:00:44.299Z,1006.28
2023-03-06T12:02:44.312Z,1006.23
2023-03-06T12:04:44.312Z,1006.19
2023-03-06T12:07:14.551Z,1006.16
2023-03-06T12:09:14.383Z,1006.16
2023-03-06T12:11:14.333Z,1006.16
2023-03-06T12:13:14.311Z,1006.10
2023-03-06T12:15:14.396Z,1006.09
2023-03-06T12:17:14.339Z,1006.03
2023-03-06T12:19:14.364Z,1006.04
2023-03-06T12:21:14.364Z,1006.04
2023-03-06T12:23:15.694Z,1006.04
2023-03-06T12:25:14.333Z,1006.05
2023-03-06T12:27:14.361Z,1005.96
2023-03-06T12:29:14.340Z,1005.96
2023-03-06T12:31:14.364Z,1005.97
2023-03-06T12:33:14.346Z,1005.97
2023-03-06T12:35:14.421Z,1005.93
2023-03-06T12:37:14.339Z,1005.95
2023-03-06T12:39:14.373Z,1005.95
2023-03-06T12:41:14.510Z,1006.00
2023-03-06T12:43:14.468Z,1006.01
2023-03-06T12:45:14.358Z,1006.00
2023-03-06T12:47:14.364Z,1005.96
2023-03-06T12:49:23.017Z,1005.96
2023-03-06T12:51:14.422Z,1005.98
2023-03-06T12:53:14.423Z,1005.95
2023-03-06T12:55:14.469Z,1005.91
2023-03-06T12:57:14.473Z,1005.91
2023-03-06T12:59:14.359Z,1005.91
2023-03-06T13:01:14.360Z,1005.88
2023-03-06T13:03:14.391Z,1005.85
2023-03-06T13:05:14.371Z,1005.86
2023-03-06T13:07:14.343Z,1005.86
2023-03-06T13:09:14.364Z,1005.86
2023-03-06T13:11:14.432Z,1005.84
2023-03-06T13:13:14.368Z,1005.84
2023-03-06T13:15:14.442Z,1005.81
2023-03-06T13:17:14.382Z,1005.81
2023-03-06T13:19:14.396Z,1005.83
2023-03-06T13:21:14.464Z,1005.78
2023-03-06T13:23:14.390Z,1005.77
2023-03-06T13:25:14.462Z,1005.75
2023-03-06T13:27:14.400Z,1005.75
2023-03-06T13:29:14.522Z,1005.72
2023-03-06T13:31:26.578Z,1005.70
2023-03-06T13:33:14.360Z,1005.72
2023-03-06T13:35:14.453Z,1005.72
2023-03-06T13:37:14.398Z,1005.69
2023-03-06T13:39:14.362Z,1005.71
2023-03-06T13:41:14.488Z,1005.69
2023-03-06T13:43:15.474Z,1005.70
2023-03-06T13:45:14.401Z,1005.70
2023-03-06T13:47:15.491Z,1005.71
2023-03-06T13:49:14.437Z,1005.69
2023-03-06T13:51:14.454Z,1005.66
2023-03-06T13:53:44.401Z,1005.66
2023-03-06T13:55:44.368Z,1005.65
2023-03-06T13:57:44.412Z,1005.65
2023-03-06T13:59:44.383Z,1005.64
2023-03-06T14:01:44.492Z,1005.58
2023-03-06T14:03:44.462Z,1005.54
2023-03-06T14:05:44.417Z,1005.54
2023-03-06T14:07:44.594Z,1005.54
2023-03-06T14:09:44.435Z,1005.61
2023-03-06T14:11:44.372Z,1005.61
2023-03-06T14:13:47.540Z,1005.61
2023-03-06T14:15:44.498Z,1005.62
2023-03-06T14:17:44.380Z,1005.62
2023-03-06T14:19:44.451Z,1005.62
2023-03-06T14:21:44.405Z,1005.60
2023-03-06T14:23:44.384Z,1005.54
2023-03-06T14:25:45.529Z,1005.55
2023-03-06T14:27:44.490Z,1005.55
2023-03-06T14:29:44.409Z,1005.50
2023-03-06T14:31:44.403Z,1005.54
2023-03-06T14:33:44.411Z,1005.54
2023-03-06T14:35:44.438Z,1005.54
2023-03-06T14:37:44.391Z,1005.52
2023-03-06T14:39:44.417Z,1005.48
2023-03-06T14:41:44.554Z,1005.50
2023-03-06T14:43:44.448Z,1005.50
2023-03-06T14:45:44.400Z,1005.50
2023-03-06T14:47:44.495Z,1005.43
2023-03-06T14:49:44.608Z,1005.43
2023-03-06T14:51:44.479Z,1005.42
2023-03-06T14:53:44.481Z,1005.39
2023-03-06T14:55:44.521Z,1005.39
2023-03-06T14:57:44.536Z,1005.39
2023-03-06T14:59:44.490Z,1005.31
2023-03-06T15:01:44.552Z,1005.35
2023-03-06T15:03:44.405Z,1005.35
2023-03-06T15:05:44.602Z,1005.35
2023-03-06T15:07:44.566Z,1005.35
2023-03-06T15:09:44.488Z,1005.35
2023-03-06T15:11:44.412Z,1005.39
2023-03-06T15:13:44.439Z,1005.39
2023-03-06T15:15:44.511Z,1005.39
2023-03-06T15:17:44.481Z,1005.38
2023-03-06T15:21:39.315Z,1005.36
2023-03-06T15:24:09.266Z,1005.36
2023-03-06T15:26:09.253Z,1005.42
2023-03-06T15:28:09.355Z,1005.46
2023-03-06T15:30:09.267Z,1005.46
2023-03-06T15:32:09.294Z,1005.46
2023-03-06T15:34:09.269Z,1005.47
2023-03-06T15:36:09.257Z,1005.53
2023-03-06T15:38:09.248Z,1005.53
2023-03-06T15:40:09.304Z,1005.50
2023-03-06T15:42:09.244Z,1005.50
2023-03-06T15:44:09.258Z,1005.46
2023-03-06T15:46:09.374Z,1005.45
2023-03-06T15:48:09.267Z,1005.41
2023-03-06T15:50:09.386Z,1005.39
2023-03-06T15:52:09.291Z,1005.39
2023-03-06T15:54:12.384Z,1005.40
2023-03-06T15:56:09.269Z,1005.40
2023-03-06T15:58:09.334Z,1005.43
2023-03-06T16:00:21.619Z,1005.43
2023-03-06T16:02:09.405Z,1005.39
2023-03-06T16:04:09.417Z,1005.44
2023-03-06T16:06:09.380Z,1005.42
2023-03-06T16:08:09.301Z,1005.38
2023-03-06T16:10:09.478Z,1005.38
2023-03-06T16:12:09.350Z,1005.37
2023-03-06T16:14:09.413Z,1005.36
2023-03-06T16:16:09.410Z,1005.31
2023-03-06T16:18:09.544Z,1005.28
2023-03-06T16:20:09.285Z,1005.28
2023-03-06T16:22:10.385Z,1005.29
2023-03-06T16:24:09.326Z,1005.28
2023-03-06T16:26:09.365Z,1005.26
2023-03-06T16:28:09.391Z,1005.31
2023-03-06T16:30:09.401Z,1005.31
2023-03-06T16:32:09.486Z,1005.31
2023-03-06T16:34:09.413Z,1005.33
2023-03-06T16:36:09.396Z,1005.33
2023-03-06T16:38:09.350Z,1005.33
2023-03-06T16:40:09.312Z,1005.35
2023-03-06T16:42:09.399Z,1005.36
2023-03-06T16:44:09.364Z,1005.36
2023-03-06T16:46:09.464Z,1005.42
2023-03-06T16:48:09.319Z,1005.42
2023-03-06T16:50:09.432Z,1005.43
2023-03-06T16:52:09.327Z,1005.44
2023-03-06T16:54:09.434Z,1005.46
2023-03-06T16:56:09.390Z,1005.50
2023-03-06T16:58:09.438Z,1005.50
2023-03-06T17:00:09.366Z,1005.49
2023-03-06T17:02:09.411Z,1005.53
2023-03-06T17:04:09.331Z,1005.53
2023-03-06T17:06:09.431Z,1005.53
2023-03-06T17:10:39.385Z,1005.54
2023-03-06T17:12:39.408Z,1005.54
2023-03-06T17:14:39.481Z,1005.58
2023-03-06T17:16:39.409Z,1005.58
2023-03-06T17:18:39.433Z,1005.67
2023-03-06T17:20:39.320Z,1005.67
2023-03-06T17:22:39.330Z,1005.70
2023-03-06T17:24:39.409Z,1005.72
2023-03-06T17:26:39.373Z,1005.76
2023-03-06T17:28:39.390Z,1005.77
2023-03-06T17:30:39.398Z,1005.77
2023-03-06T17:32:39.547Z,1005.81
2023-03-06T17:34:39.370Z,1005.81
2023-03-06T17:36:39.490Z,1005.88
2023-03-06T17:38:39.369Z,1005.88
2023-03-06T17:40:39.403Z,1005.94
2023-03-06T17:42:39.401Z,1005.96
2023-03-06T17:44:39.443Z,1006.00
2023-03-06T17:46:39.504Z,1006.00
2023-03-06T17:48:39.475Z,1006.00
2023-03-06T17:50:39.394Z,1006.08
2023-03-06T17:52:39.377Z,1006.13
2023-03-06T17:54:39.449Z,1006.17
2023-03-06T17:56:39.387Z,1006.17
2023-03-06T17:58:39.425Z,1006.17
2023-03-06T18:00:39.434Z,1006.16
2023-03-06T18:02:39.420Z,1006.16
2023-03-06T18:04:39.512Z,1006.10
2023-03-06T18:06:39.350Z,1006.10
2023-03-06T18:08:39.371Z,1006.10
2023-03-06T18:10:39.382Z,1006.14
2023-03-06T18:12:39.408Z,1006.14
2023-03-06T18:14:39.407Z,1006.20
2023-03-06T18:16:39.442Z,1006.20
2023-03-06T18:18:39.454Z,1006.21
2023-03-06T18:20:39.332Z,1006.16
2023-03-06T18:22:39.548Z,1006.15
2023-03-06T18:24:39.411Z,1006.18
2023-03-06T18:26:39.425Z,1006.18
2023-03-06T18:28:39.433Z,1006.12
2023-03-06T18:30:39.428Z,1006.13
2023-03-06T18:32:39.457Z,1006.18
2023-03-06T18:34:39.362Z,1006.18
2023-03-06T18:36:39.386Z,1006.20
2023-03-06T18:38:39.383Z,1006.20
2023-03-06T18:40:39.446Z,1006.17
2023-03-06T18:42:39.443Z,1006.15
2023-03-06T18:44:39.421Z,1006.15
2023-03-06T18:46:39.439Z,1006.14
2023-03-06T18:48:39.468Z,1006.14
2023-03-06T18:50:42.051Z,1006.12
2023-03-06T18:52:39.634Z,1006.10
2023-03-06T18:54:39.398Z,1006.10
2023-03-06T18:57:09.426Z,1006.21
2023-03-06T18:59:09.438Z,1006.15
2023-03-06T19:01:09.666Z,1006.17
2023-03-06T19:03:09.410Z,1006.17
2023-03-06T19:05:09.485Z,1006.13
2023-03-06T19:07:09.402Z,1006.08
2023-03-06T19:09:09.498Z,1006.08
2023-03-06T19:11:09.453Z,1006.07
2023-03-06T19:13:09.489Z,1006.07
2023-03-06T19:15:09.500Z,1006.09
2023-03-06T19:17:09.476Z,1006.10
2023-03-06T19:19:09.509Z,1006.10
2023-03-06T19:21:09.387Z,1006.10
2023-03-06T19:23:09.451Z,1006.10
2023-03-06T19:25:09.444Z,1006.15
2023-03-06T19:27:09.423Z,1006.15
2023-03-06T19:29:09.500Z,1006.21
2023-03-06T19:31:09.510Z,1006.16
2023-03-06T19:33:09.703Z,1006.16
2023-03-06T19:35:09.412Z,1006.12
2023-03-06T19:37:09.464Z,1006.11
2023-03-06T19:39:09.472Z,1006.11
2023-03-06T19:41:09.461Z,1006.11
2023-03-06T19:43:09.525Z,1006.11
2023-03-06T19:45:09.415Z,1006.05
2023-03-06T19:47:09.601Z,1006.03
2023-03-06T19:49:09.490Z,1006.01
2023-03-06T19:51:10.058Z,1006.01
2023-03-06T19:53:09.501Z,1006.00
2023-03-06T19:55:09.473Z,1005.99
2023-03-06T19:57:09.476Z,1006.02
2023-03-06T19:59:09.643Z,1006.02
2023-03-06T20:01:09.557Z,1006.02
2023-03-06T20:03:09.421Z,1006.00
2023-03-06T20:05:09.468Z,1005.99
2023-03-06T20:07:09.438Z,1005.99
2023-03-06T20:09:09.416Z,1005.99
2023-03-06T20:11:09.405Z,1005.98
2023-03-06T20:13:09.390Z,1005.94
2023-03-06T20:15:09.529Z,1005.92
2023-03-06T20:17:09.407Z,1005.93
2023-03-06T20:19:09.402Z,1005.93
2023-03-06T20:21:09.420Z,1005.88
2023-03-06T20:23:09.522Z,1005.88
2023-03-06T20:25:10.521Z,1005.88
2023-03-06T20:27:09.415Z,1005.87
2023-03-06T20:29:09.583Z,1005.87
2023-03-06T20:31:09.633Z,1005.92
2023-03-06T20:33:09.434Z,1005.91
2023-03-06T20:35:09.432Z,1005.93
2023-03-06T20:37:09.453Z,1005.93
2023-03-06T20:39:09.472Z,1005.91
2023-03-06T20:41:09.472Z,1005.91
2023-03-06T20:43:39.405Z,1005.91
2023-03-06T20:45:39.555Z,1005.90
2023-03-06T20:47:39.540Z,1005.93
2023-03-06T20:49:39.449Z,1005.93
2023-03-06T20:51:39.493Z,1005.93
2023-03-06T20:53:39.428Z,1005.94
2023-03-06T20:55:39.456Z,1005.92
2023-03-06T20:57:39.446Z,1005.89
2023-03-06T20:59:42.441Z,1005.86
2023-03-06T21:01:39.534Z,1005.86
2023-03-06T21:03:39.488Z,1005.88
2023-03-06T21:05:39.450Z,1005.86
2023-03-06T21:07:39.439Z,1005.82
2023-03-06T21:09:39.481Z,1005.82
2023-03-06T21:11:39.498Z,1005.82
2023-03-06T21:13:39.462Z,1005.82
2023-03-06T21:15:39.444Z,1005.80
2023-03-06T21:17:39.512Z,1005.77
2023-03-06T21:19:39.456Z,1005.77
2023-03-06T21:21:39.454Z,1005.77
2023-03-06T21:23:39.498Z,1005.74
2023-03-06T21:25:39.460Z,1005.74
2023-03-06T21:27:39.440Z,1005.72
2023-03-06T21:29:39.472Z,1005.72
2023-03-06T21:31:39.496Z,1005.66
2023-03-06T21:33:39.418Z,1005.62
2023-03-06T21:35:39.540Z,1005.66
2023-03-06T21:37:39.452Z,1005.66
2023-03-06T21:39:39.482Z,1005.57
2023-03-06T21:41:39.519Z,1005.55
2023-03-06T21:43:39.452Z,1005.53
2023-03-06T21:45:39.463Z,1005.51
2023-03-06T21:47:39.500Z,1005.51
2023-03-06T21:49:39.466Z,1005.49
2023-03-06T21:51:39.462Z,1005.46
2023-03-06T21:53:39.472Z,1005.45
2023-03-06T21:55:39.457Z,1005.41
2023-03-06T21:57:39.506Z,1005.41
2023-03-06T21:59:39.524Z,1005.43
2023-03-06T22:01:39.463Z,1005.43
2023-03-06T22:03:39.462Z,1005.37
2023-03-06T22:05:39.459Z,1005.37
2023-03-06T22:07:39.544Z,1005.36
2023-03-06T22:09:39.514Z,1005.34
2023-03-06T22:11:39.444Z,1005.31
2023-03-06T22:13:39.539Z,1005.33
2023-03-06T22:15:39.511Z,1005.33
2023-03-06T22:17:39.443Z,1005.33
2023-03-06T22:19:39.509Z,1005.24
2023-03-06T22:21:39.471Z,1005.25
2023-03-06T22:23:39.536Z,1005.23
2023-03-06T22:25:39.474Z,1005.23
2023-03-06T22:27:39.541Z,1005.19
2023-03-06T22:32:09.636Z,1005.12
2023-03-06T22:33:48.285Z,1005.12
2023-03-06T22:35:48.358Z,1005.17
2023-03-06T22:37:48.312Z,1005.16
2023-03-06T22:39:48.297Z,1005.17
2023-03-06T22:41:48.340Z,1005.17
2023-03-06T22:43:48.321Z,1005.17
2023-03-06T22:45:48.400Z,1005.10
2023-03-06T22:47:48.306Z,1005.10
2023-03-06T22:49:48.314Z,1005.08
2023-03-06T22:51:48.427Z,1005.14
2023-03-06T22:53:48.287Z,1005.14
2023-03-06T22:55:48.342Z,1005.10
2023-03-06T22:57:48.313Z,1005.12
2023-03-06T22:59:48.348Z,1005.08
2023-03-06T23:01:48.343Z,1005.02
2023-03-06T23:04:18.373Z,1005.02
2023-03-06T23:06:18.298Z,1005.02
2023-03-06T23:08:18.295Z,1004.98
2023-03-06T23:10:18.310Z,1004.98
2023-03-06T23:12:18.321Z,1004.98
2023-03-06T23:14:18.401Z,1004.95
2023-03-06T23:16:18.310Z,1004.95
2023-03-06T23:18:18.318Z,1004.97
2023-03-06T23:20:18.342Z,1004.96
2023-03-06T23:22:18.344Z,1004.96
2023-03-06T23:24:18.360Z,1004.96
2023-03-06T23:26:18.350Z,1004.99
2023-03-06T23:28:18.319Z,1004.93
2023-03-06T23:30:18.322Z,1004.91
2023-03-06T23:32:18.408Z,1004.91
2023-03-06T23:34:18.441Z,1004.91
2023-03-06T23:36:18.314Z,1004.84
2023-03-06T23:38:18.310Z,1004.83
2023-03-06T23:40:18.336Z,1004.83
2023-03-06T23:42:18.324Z,1004.79
2023-03-06T23:44:18.413Z,1004.80
2023-03-06T23:46:18.500Z,1004.79
2023-03-06T23:48:18.323Z,1004.78
2023-03-06T23:50:18.450Z,1004.78
2023-03-06T23:52:18.357Z,1004.76
2023-03-06T23:54:18.350Z,1004.75
2023-03-06T23:56:18.390Z,1004.74
2023-03-06T23:58:18.348Z,1004.70
